Time;durP1;ratioP1;P1;durP2;ratioP2;P2;SDS_P1;SDS_P2;PMS_P1;PMS_P2;Temp;Humidity;BMP_temperature;BMP_pressure;BME280_temperature;BME280_humidity;BME280_pressure;Samples;Min_cycle;Max_cycle;Signal;HPM_P1;HPM_P2
2021/11/29 00:01:27;;;;;;;13.32;6.40;;;1.70;99.90;;;;;;4998113;28;20081;-69
2021/11/29 00:03:53;;;;;;;18.23;7.25;;;1.80;99.90;;;;;;5013501;28;20528;-69
2021/11/29 00:06:19;;;;;;;12.85;6.50;;;1.70;99.90;;;;;;5008414;28;20036;-69
2021/11/29 00:08:48;;;;;;;11.57;4.45;;;1.70;99.90;;;;;;5007831;28;20461;-69
2021/11/29 00:11:15;;;;;;;5.72;2.75;;;1.70;99.90;;;;;;5012172;28;20104;-69
2021/11/29 00:13:40;;;;;;;6.55;3.38;;;1.60;99.90;;;;;;5008368;28;20363;-69
2021/11/29 00:16:07;;;;;;;12.00;5.43;;;1.60;99.90;;;;;;5010524;28;20032;-69
2021/11/29 00:18:33;;;;;;;16.73;3.58;;;1.70;99.90;;;;;;5007069;28;20413;-69
2021/11/29 00:20:58;;;;;;;12.20;3.60;;;1.60;99.90;;;;;;5014047;28;20021;-69
2021/11/29 00:23:24;;;;;;;7.75;4.90;;;1.70;99.90;;;;;;5003307;28;20068;-69
2021/11/29 00:25:51;;;;;;;7.53;3.67;;;1.60;99.90;;;;;;4997008;28;20096;-69
2021/11/29 00:28:17;;;;;;;5.78;3.22;;;1.60;99.90;;;;;;5002925;28;20044;-69
2021/11/29 00:30:46;;;;;;;8.52;4.28;;;1.60;99.90;;;;;;5000603;28;20045;-69
2021/11/29 00:33:12;;;;;;;8.68;3.67;;;1.50;99.90;;;;;;5000887;28;20030;-69
2021/11/29 00:35:40;;;;;;;10.82;4.75;;;1.40;99.90;;;;;;5000536;28;20106;-69
2021/11/29 00:38:07;;;;;;;6.47;2.78;;;1.40;99.90;;;;;;5003573;28;20026;-69
2021/11/29 00:40:34;;;;;;;5.13;3.05;;;1.30;99.90;;;;;;4999945;28;20022;-69
2021/11/29 00:43:00;;;;;;;12.75;5.70;;;1.40;99.90;;;;;;5005845;28;20033;-69
2021/11/29 00:45:26;;;;;;;11.13;4.38;;;1.30;99.90;;;;;;4992492;28;20113;-69
2021/11/29 00:47:52;;;;;;;13.50;3.03;;;1.30;99.90;;;;;;5006206;28;20485;-69
2021/11/29 00:50:19;;;;;;;4.65;2.83;;;1.40;99.90;;;;;;5005214;28;20032;-69
2021/11/29 00:52:45;;;;;;;12.25;4.13;;;1.40;99.90;;;;;;5000122;28;20029;-69
2021/11/29 00:55:12;;;;;;;5.28;3.20;;;1.30;99.90;;;;;;4996440;28;20081;-69
2021/11/29 00:57:38;;;;;;;8.98;3.63;;;1.30;99.90;;;;;;4993762;28;20069;-69
2021/11/29 01:00:11;;;;;;;12.35;5.47;;;1.20;99.90;;;;;;5003874;28;20025;-69
2021/11/29 01:02:37;;;;;;;6.18;3.22;;;1.20;99.90;;;;;;4996090;28;20086;-69
2021/11/29 01:05:03;;;;;;;6.90;3.15;;;1.10;99.90;;;;;;5004925;28;20117;-69
2021/11/29 01:07:29;;;;;;;9.80;3.65;;;1.10;99.90;;;;;;4995039;28;20036;-69
2021/11/29 01:09:55;;;;;;;13.10;4.47;;;1.00;99.90;;;;;;4998398;28;20393;-69
2021/11/29 01:12:21;;;;;;;14.75;5.97;;;1.00;99.90;;;;;;5005203;28;20056;-69
2021/11/29 01:14:47;;;;;;;2.92;1.83;;;1.00;99.90;;;;;;5000077;28;20030;-69
2021/11/29 01:17:12;;;;;;;4.97;1.40;;;0.90;99.90;;;;;;5002768;28;20060;-69
2021/11/29 01:19:38;;;;;;;8.75;3.40;;;1.00;99.90;;;;;;5017358;28;20088;-69
2021/11/29 01:22:05;;;;;;;12.63;3.92;;;0.90;99.90;;;;;;5002193;28;20025;-69
2021/11/29 01:24:31;;;;;;;11.68;4.50;;;0.90;99.90;;;;;;5001646;28;20494;-69
2021/11/29 01:26:56;;;;;;;5.22;2.97;;;0.80;99.90;;;;;;4991639;28;20033;-69
2021/11/29 01:29:22;;;;;;;8.73;4.18;;;0.80;99.90;;;;;;4994333;28;20034;-69
2021/11/29 01:31:48;;;;;;;8.32;4.55;;;0.80;99.90;;;;;;4989330;28;20030;-69
2021/11/29 01:34:15;;;;;;;9.13;3.45;;;0.70;99.90;;;;;;5002595;28;20021;-68
2021/11/29 01:36:41;;;;;;;2.35;1.73;;;0.90;99.90;;;;;;5003025;28;20083;-68
2021/11/29 01:39:08;;;;;;;5.63;3.25;;;0.80;99.90;;;;;;5004613;28;20025;-68
2021/11/29 01:41:34;;;;;;;11.77;3.10;;;0.80;99.90;;;;;;5003203;28;20026;-68
2021/11/29 01:44:00;;;;;;;10.35;3.33;;;0.80;99.90;;;;;;5005737;28;20026;-68
2021/11/29 01:46:25;;;;;;;6.80;3.63;;;0.80;99.90;;;;;;5015305;28;20086;-69
2021/11/29 01:48:51;;;;;;;4.45;2.55;;;0.70;99.90;;;;;;5009913;28;20038;-69
2021/11/29 01:51:17;;;;;;;7.85;3.88;;;0.80;99.90;;;;;;4995768;28;20106;-68
2021/11/29 01:53:43;;;;;;;12.20;3.08;;;0.70;99.90;;;;;;5009553;28;20022;-68
2021/11/29 01:56:09;;;;;;;14.85;4.45;;;0.70;99.90;;;;;;5002328;28;20030;-68
2021/11/29 01:58:37;;;;;;;8.10;3.35;;;0.80;99.90;;;;;;5009417;28;20049;-68
2021/11/29 02:01:08;;;;;;;8.52;3.88;;;0.70;99.90;;;;;;5008054;28;20049;-69
2021/11/29 02:03:34;;;;;;;5.50;3.03;;;0.80;99.90;;;;;;5001702;28;20034;-69
2021/11/29 02:06:00;;;;;;;4.97;2.85;;;0.90;99.90;;;;;;5009142;28;20472;-69
2021/11/29 02:08:26;;;;;;;17.10;5.50;;;0.80;99.90;;;;;;5006508;28;20066;-69
2021/11/29 02:10:52;;;;;;;22.17;4.53;;;0.70;99.90;;;;;;5012578;28;20113;-69
2021/11/29 02:13:19;;;;;;;14.15;3.80;;;0.70;99.90;;;;;;5005342;28;20026;-69
2021/11/29 02:15:50;;;;;;;7.68;3.05;;;0.70;99.90;;;;;;5005110;28;20382;-69
2021/11/29 02:18:21;;;;;;;13.57;6.10;;;0.70;99.90;;;;;;5015189;28;20068;-69
2021/11/29 02:21:22;;;;;;;;;;;0.70;99.90;;;;;;5011475;28;20026;-69
2021/11/29 02:23:50;;;;;;;6.38;2.58;;;0.70;99.90;;;;;;4993241;28;19910;-69
2021/11/29 02:26:18;;;;;;;6.60;4.13;;;0.70;99.90;;;;;;4996901;28;20141;-69
2021/11/29 02:28:47;;;;;;;6.05;3.08;;;0.70;99.90;;;;;;5012424;28;20057;-69
2021/11/29 02:31:17;;;;;;;10.10;5.20;;;0.70;99.90;;;;;;5001504;28;20097;-69
2021/11/29 02:33:42;;;;;;;4.25;2.03;;;0.80;99.90;;;;;;5011746;28;20041;-69
2021/11/29 02:36:08;;;;;;;9.13;4.35;;;0.70;99.90;;;;;;5002254;28;20490;-69
2021/11/29 02:38:34;;;;;;;7.25;2.70;;;0.70;99.90;;;;;;5004703;28;20034;-69
2021/11/29 02:41:00;;;;;;;9.50;3.38;;;0.70;99.90;;;;;;4998336;28;20053;-69
2021/11/29 02:43:26;;;;;;;14.95;2.72;;;0.70;99.90;;;;;;4989950;28;20081;-69
2021/11/29 02:45:52;;;;;;;12.25;3.28;;;0.70;99.90;;;;;;5003428;28;20034;-69
2021/11/29 02:48:18;;;;;;;9.80;3.03;;;0.80;99.90;;;;;;5004882;28;20034;-69
2021/11/29 02:50:44;;;;;;;6.60;3.20;;;0.80;99.90;;;;;;4998450;28;20549;-69
2021/11/29 02:53:13;;;;;;;9.52;3.65;;;0.80;99.90;;;;;;5008058;28;20550;-69
2021/11/29 02:55:39;;;;;;;4.80;2.72;;;0.80;99.90;;;;;;5002454;28;20026;-69
2021/11/29 02:58:06;;;;;;;5.25;2.63;;;0.80;99.90;;;;;;5005136;28;20036;-69
2021/11/29 03:00:32;;;;;;;4.85;2.28;;;0.90;99.90;;;;;;5006714;28;20049;-69
2021/11/29 03:03:16;;;;;;;10.43;3.30;;;0.80;99.90;;;;;;5003038;28;20058;-69
2021/11/29 03:05:47;;;;;;;8.93;3.63;;;0.90;99.90;;;;;;4994864;28;20038;-69
2021/11/29 03:08:12;;;;;;;8.48;3.15;;;0.90;99.90;;;;;;4998016;28;20030;-69
2021/11/29 03:10:38;;;;;;;6.97;3.17;;;1.00;99.90;;;;;;5004593;28;20017;-68
2021/11/29 03:13:04;;;;;;;4.72;2.33;;;1.00;99.90;;;;;;5003557;28;20565;-69
2021/11/29 03:15:29;;;;;;;4.25;2.38;;;1.00;99.90;;;;;;5003751;28;20033;-69
2021/11/29 03:17:55;;;;;;;2.05;1.85;;;1.00;99.90;;;;;;5001049;28;20022;-69
2021/11/29 03:20:21;;;;;;;9.10;4.20;;;1.00;99.90;;;;;;4991293;28;20072;-69
2021/11/29 03:22:46;;;;;;;10.68;2.50;;;1.00;99.90;;;;;;4998766;28;20030;-69
2021/11/29 03:25:12;;;;;;;3.75;2.33;;;1.10;99.90;;;;;;5004790;28;20037;-69
2021/11/29 03:27:40;;;;;;;2.80;1.90;;;1.10;99.90;;;;;;4995726;28;20027;-69
2021/11/29 03:30:06;;;;;;;8.32;3.67;;;1.10;99.90;;;;;;5009698;28;20033;-69
2021/11/29 03:32:34;;;;;;;14.70;2.20;;;1.10;99.90;;;;;;5003686;28;20102;-69
2021/11/29 03:34:59;;;;;;;4.43;2.00;;;1.10;99.90;;;;;;5008602;28;20026;-69
2021/11/29 03:37:25;;;;;;;7.57;4.55;;;1.00;99.90;;;;;;5008166;28;20047;-69
2021/11/29 03:39:51;;;;;;;3.13;1.50;;;1.10;99.90;;;;;;5011440;28;20029;-69
2021/11/29 03:42:16;;;;;;;4.53;2.40;;;1.00;99.90;;;;;;5000412;28;20029;-69
2021/11/29 03:44:42;;;;;;;4.18;2.38;;;1.00;99.90;;;;;;4985736;28;20394;-69
2021/11/29 03:47:08;;;;;;;2.70;1.42;;;1.00;99.90;;;;;;4993428;28;20041;-69
2021/11/29 03:49:34;;;;;;;6.72;3.10;;;1.00;99.90;;;;;;5009473;28;20067;-69
2021/11/29 03:52:00;;;;;;;3.80;2.30;;;1.00;99.90;;;;;;4998169;28;20367;-69
2021/11/29 03:54:26;;;;;;;3.58;1.95;;;1.10;99.90;;;;;;5004347;28;20022;-69
2021/11/29 03:56:52;;;;;;;9.27;2.03;;;1.10;99.90;;;;;;5007885;28;20053;-69
2021/11/29 03:59:18;;;;;;;1.83;1.15;;;1.20;99.90;;;;;;5001955;28;20038;-69
2021/11/29 04:01:44;;;;;;;2.35;1.60;;;1.10;99.90;;;;;;4995278;28;20211;-69
2021/11/29 04:04:10;;;;;;;5.38;2.55;;;1.10;99.90;;;;;;4998585;28;20486;-69
2021/11/29 04:06:36;;;;;;;7.50;6.38;;;1.10;99.90;;;;;;5001648;28;20026;-69
2021/11/29 04:09:03;;;;;;;3.22;1.92;;;1.00;99.90;;;;;;4999535;28;20030;-69
2021/11/29 04:11:30;;;;;;;4.03;1.98;;;1.00;99.90;;;;;;5004446;28;20486;-69
2021/11/29 04:13:56;;;;;;;5.95;3.03;;;1.00;99.90;;;;;;5004725;28;20113;-69
2021/11/29 04:16:21;;;;;;;6.10;2.13;;;1.00;99.90;;;;;;5005114;28;20104;-69
2021/11/29 04:18:47;;;;;;;6.68;2.17;;;1.00;99.90;;;;;;5001652;28;20114;-69
2021/11/29 04:21:15;;;;;;;6.40;3.25;;;1.00;99.90;;;;;;4996757;28;20670;-69
2021/11/29 04:23:45;;;;;;;7.55;2.25;;;0.90;99.90;;;;;;4996864;28;20026;-69
2021/11/29 04:26:14;;;;;;;4.68;2.40;;;0.90;99.90;;;;;;5008600;28;20595;-69
2021/11/29 04:28:41;;;;;;;12.32;2.25;;;1.00;99.90;;;;;;4995720;28;20017;-69
2021/11/29 04:31:06;;;;;;;4.28;2.00;;;0.90;99.90;;;;;;5003710;28;20037;-69
2021/11/29 04:33:32;;;;;;;6.95;2.13;;;0.90;99.90;;;;;;5008584;28;20034;-68
2021/11/29 04:35:58;;;;;;;3.13;2.05;;;0.90;99.90;;;;;;5008083;28;20532;-69
2021/11/29 04:38:24;;;;;;;6.85;2.47;;;0.90;99.90;;;;;;5006051;28;20119;-69
2021/11/29 04:40:50;;;;;;;3.78;1.77;;;0.90;99.90;;;;;;5001524;28;20030;-69
2021/11/29 04:43:16;;;;;;;3.17;1.65;;;0.80;99.90;;;;;;5000493;28;20037;-69
2021/11/29 04:45:43;;;;;;;2.58;1.40;;;0.70;99.90;;;;;;4992193;28;20040;-69
2021/11/29 04:48:09;;;;;;;3.78;2.28;;;0.70;99.90;;;;;;5016113;28;20033;-69
2021/11/29 04:50:35;;;;;;;3.92;1.80;;;0.60;99.90;;;;;;5003407;28;20471;-69
2021/11/29 04:53:02;;;;;;;5.43;2.65;;;0.60;99.90;;;;;;4998483;28;20022;-69
2021/11/29 04:55:27;;;;;;;4.63;2.03;;;0.60;99.90;;;;;;5005209;28;20092;-69
2021/11/29 04:57:53;;;;;;;5.47;2.25;;;0.70;99.90;;;;;;4996189;28;20442;-69
2021/11/29 05:00:19;;;;;;;4.38;2.78;;;0.70;99.90;;;;;;5012081;28;20080;-69
2021/11/29 05:02:46;;;;;;;2.05;1.35;;;0.80;99.90;;;;;;5002811;28;20026;-69
2021/11/29 05:05:12;;;;;;;3.38;1.90;;;0.90;99.90;;;;;;5007987;28;20026;-69
2021/11/29 05:07:38;;;;;;;5.78;2.03;;;1.00;99.90;;;;;;4996869;28;20038;-69
2021/11/29 05:10:05;;;;;;;4.22;2.28;;;1.10;99.90;;;;;;5004922;28;20053;-69
2021/11/29 05:12:31;;;;;;;3.70;1.77;;;1.10;99.90;;;;;;5003307;28;20113;-69
2021/11/29 05:14:57;;;;;;;1.80;1.42;;;1.20;99.90;;;;;;5000847;28;20046;-69
2021/11/29 05:17:23;;;;;;;3.67;1.63;;;1.20;99.90;;;;;;5005591;28;20034;-69
2021/11/29 05:19:49;;;;;;;17.80;1.92;;;1.20;99.90;;;;;;5009697;28;21352;-69
2021/11/29 05:22:14;;;;;;;8.43;1.45;;;1.30;99.90;;;;;;5004292;28;20034;-69
2021/11/29 05:24:40;;;;;;;4.57;2.10;;;1.30;99.90;;;;;;5011666;28;20033;-69
2021/11/29 05:27:06;;;;;;;4.15;1.90;;;1.30;99.90;;;;;;5013594;28;20477;-69
2021/11/29 05:29:32;;;;;;;1.55;1.27;;;1.30;99.90;;;;;;5013488;28;20505;-69
2021/11/29 05:31:58;;;;;;;9.02;3.45;;;1.30;99.90;;;;;;5012141;28;20034;-69
2021/11/29 05:34:24;;;;;;;2.70;1.80;;;1.30;99.90;;;;;;5004200;28;20544;-69
2021/11/29 05:36:49;;;;;;;7.10;3.67;;;1.40;99.90;;;;;;5005113;28;20064;-69
2021/11/29 05:39:16;;;;;;;1.48;1.17;;;1.40;99.90;;;;;;5011480;28;20056;-69
2021/11/29 05:41:44;;;;;;;2.55;2.03;;;1.40;99.90;;;;;;5013284;28;20061;-69
2021/11/29 05:44:09;;;;;;;4.00;1.88;;;1.40;99.90;;;;;;5016580;28;20144;-69
2021/11/29 05:46:35;;;;;;;1.33;1.20;;;1.40;99.90;;;;;;5006554;28;20113;-69
2021/11/29 05:49:01;;;;;;;5.05;2.03;;;1.40;99.90;;;;;;5005618;28;20109;-69
2021/11/29 05:51:28;;;;;;;2.67;1.50;;;1.40;99.90;;;;;;4999751;28;20021;-69
2021/11/29 05:53:54;;;;;;;4.43;2.00;;;1.40;99.90;;;;;;5011111;28;20022;-69
2021/11/29 05:56:20;;;;;;;5.40;2.70;;;1.40;99.90;;;;;;4994106;28;20109;-69
2021/11/29 05:58:46;;;;;;;3.70;1.70;;;1.40;99.90;;;;;;5022152;28;20140;-69
2021/11/29 06:01:11;;;;;;;1.63;1.20;;;1.40;99.90;;;;;;5007133;28;20172;-69
2021/11/29 06:03:37;;;;;;;2.85;1.30;;;1.40;99.90;;;;;;5007896;28;20033;-69
2021/11/29 06:06:03;;;;;;;2.28;1.67;;;1.30;99.90;;;;;;5008482;28;20037;-69
2021/11/29 06:08:29;;;;;;;4.68;2.30;;;1.30;99.90;;;;;;5005612;28;20142;-69
2021/11/29 06:10:54;;;;;;;4.28;2.30;;;1.40;99.90;;;;;;5007547;28;20127;-69
2021/11/29 06:13:20;;;;;;;22.02;1.85;;;1.40;99.90;;;;;;4984738;28;20026;-69
2021/11/29 06:15:45;;;;;;;4.78;2.10;;;1.40;99.90;;;;;;5003518;28;20048;-69
2021/11/29 06:18:12;;;;;;;5.78;2.42;;;1.40;99.90;;;;;;5003340;28;20184;-69
2021/11/29 06:20:37;;;;;;;5.13;4.65;;;1.40;99.90;;;;;;5014861;28;20030;-69
2021/11/29 06:23:03;;;;;;;6.50;2.88;;;1.50;99.90;;;;;;5002753;28;20547;-69
2021/11/29 06:25:29;;;;;;;7.93;1.85;;;1.50;99.90;;;;;;4992520;28;20077;-69
2021/11/29 06:27:55;;;;;;;2.97;1.55;;;1.50;99.90;;;;;;5014704;28;20255;-69
2021/11/29 06:30:22;;;;;;;6.78;2.58;;;1.50;99.90;;;;;;5010896;28;20026;-69
2021/11/29 06:32:48;;;;;;;1.85;1.23;;;1.50;99.90;;;;;;5015709;28;20025;-69
2021/11/29 06:35:15;;;;;;;6.03;1.73;;;1.50;99.90;;;;;;5005492;28;20533;-69
2021/11/29 06:37:45;;;;;;;4.57;2.60;;;1.50;99.90;;;;;;4993478;28;20026;-69
2021/11/29 06:40:11;;;;;;;;;;;1.50;99.90;;;;;;5006630;28;20505;-69
2021/11/29 06:42:37;;;;;;;3.17;2.63;;;1.50;99.90;;;;;;5004294;28;19913;-69
2021/11/29 06:45:03;;;;;;;2.85;1.65;;;1.50;99.90;;;;;;4999754;28;20030;-69
2021/11/29 06:47:29;;;;;;;5.57;2.67;;;1.60;99.90;;;;;;5006169;28;20389;-69
2021/11/29 06:49:54;;;;;;;2.35;1.60;;;1.60;99.90;;;;;;5009282;28;20041;-69
2021/11/29 06:52:20;;;;;;;6.25;2.28;;;1.60;99.90;;;;;;5010139;28;20025;-70
2021/11/29 06:54:50;;;;;;;2.40;1.20;;;1.60;99.90;;;;;;5010533;28;20030;-69
2021/11/29 06:57:17;;;;;;;1.48;1.17;;;1.50;99.90;;;;;;5006167;28;20033;-69
2021/11/29 06:59:43;;;;;;;7.30;2.75;;;1.50;99.90;;;;;;5004732;28;20549;-69
2021/11/29 07:02:10;;;;;;;5.18;2.10;;;1.40;99.90;;;;;;5007475;28;20056;-69
2021/11/29 07:04:36;;;;;;;7.80;2.20;;;1.30;99.90;;;;;;5008849;28;20113;-69
2021/11/29 07:07:01;;;;;;;2.53;1.65;;;1.30;99.90;;;;;;5002929;28;20529;-69
2021/11/29 07:09:27;;;;;;;2.38;1.52;;;1.30;99.90;;;;;;5013098;28;20025;-69
2021/11/29 07:11:53;;;;;;;5.38;1.65;;;1.20;99.90;;;;;;5010325;28;20030;-69
2021/11/29 07:14:19;;;;;;;4.75;2.70;;;1.20;99.90;;;;;;5013152;28;20136;-69
2021/11/29 07:16:48;;;;;;;4.25;2.17;;;1.20;99.90;;;;;;5017504;28;20829;-69
2021/11/29 07:19:15;;;;;;;5.65;2.70;;;1.10;99.90;;;;;;5018194;28;20508;-69
2021/11/29 07:21:45;;;;;;;13.63;4.43;;;1.10;99.90;;;;;;5012933;28;20119;-68
2021/11/29 07:24:11;;;;;;;2.55;1.60;;;1.20;99.90;;;;;;5011648;28;20056;-68
2021/11/29 07:26:38;;;;;;;10.10;3.50;;;1.10;99.90;;;;;;5011122;28;20034;-69
2021/11/29 07:29:04;;;;;;;3.05;1.52;;;1.20;99.90;;;;;;5003537;28;20030;-69
2021/11/29 07:31:29;;;;;;;7.43;2.40;;;1.20;99.90;;;;;;4999810;28;20508;-69
2021/11/29 07:33:55;;;;;;;7.80;3.20;;;1.20;99.90;;;;;;5003374;28;20030;-69
2021/11/29 07:36:21;;;;;;;8.10;3.33;;;1.20;99.90;;;;;;5004492;28;20475;-68
2021/11/29 07:38:46;;;;;;;5.53;3.38;;;1.20;99.90;;;;;;5002046;28;20584;-68
2021/11/29 07:41:12;;;;;;;5.18;2.83;;;1.20;99.90;;;;;;5005894;28;20087;-68
2021/11/29 07:43:38;;;;;;;6.68;2.97;;;1.20;99.90;;;;;;4996103;28;20029;-68
2021/11/29 07:46:03;;;;;;;10.43;4.05;;;1.20;99.90;;;;;;4999770;28;20026;-68
2021/11/29 07:48:29;;;;;;;8.30;3.00;;;1.20;99.90;;;;;;5003772;28;20120;-68
2021/11/29 07:50:55;;;;;;;9.07;3.50;;;1.20;99.90;;;;;;5002787;28;20157;-68
2021/11/29 07:53:21;;;;;;;6.43;2.95;;;1.20;99.90;;;;;;5005001;28;20036;-68
2021/11/29 07:55:47;;;;;;;5.68;2.92;;;1.10;99.90;;;;;;5010926;28;20113;-68
2021/11/29 07:58:13;;;;;;;6.78;3.00;;;1.10;99.90;;;;;;5002740;28;20113;-68
2021/11/29 08:00:39;;;;;;;9.95;4.72;;;1.10;99.90;;;;;;4999277;28;20050;-68
2021/11/29 08:03:06;;;;;;;7.88;4.45;;;1.10;99.90;;;;;;5005335;28;20379;-69
2021/11/29 08:05:33;;;;;;;8.52;3.72;;;1.10;99.90;;;;;;5003234;28;20478;-69
2021/11/29 08:08:00;;;;;;;7.78;3.25;;;1.10;99.90;;;;;;5002490;28;20490;-69
2021/11/29 08:10:27;;;;;;;10.60;3.92;;;1.10;99.90;;;;;;5004020;28;20026;-68
2021/11/29 08:12:53;;;;;;;6.00;2.80;;;1.10;99.90;;;;;;5003484;28;20038;-68
2021/11/29 08:15:19;;;;;;;7.22;3.72;;;1.10;99.90;;;;;;5003141;28;20030;-68
2021/11/29 08:17:45;;;;;;;9.23;4.78;;;1.10;99.90;;;;;;5006288;28;20029;-68
2021/11/29 08:20:12;;;;;;;8.15;3.90;;;1.10;99.90;;;;;;5013725;28;20026;-68
2021/11/29 08:22:38;;;;;;;10.43;5.63;;;1.10;99.90;;;;;;5012323;28;20018;-68
2021/11/29 08:25:05;;;;;;;5.15;3.22;;;1.10;99.90;;;;;;5006671;28;20038;-68
2021/11/29 08:27:33;;;;;;;11.20;3.58;;;1.10;99.90;;;;;;5005719;28;20049;-68
2021/11/29 08:30:06;;;;;;;8.40;4.47;;;1.20;99.90;;;;;;5008100;28;20243;-68
2021/11/29 08:32:32;;;;;;;6.78;2.65;;;1.20;99.90;;;;;;5005670;28;20108;-68
2021/11/29 08:34:58;;;;;;;7.82;4.03;;;1.20;99.90;;;;;;5006739;28;20083;-68
2021/11/29 08:37:24;;;;;;;6.63;2.97;;;1.20;99.90;;;;;;5006053;28;20038;-67
2021/11/29 08:39:49;;;;;;;11.70;4.07;;;1.20;99.90;;;;;;5007393;28;20047;-68
2021/11/29 08:42:15;;;;;;;4.75;2.83;;;1.20;99.90;;;;;;5007518;28;20493;-68
2021/11/29 08:44:41;;;;;;;11.73;4.95;;;1.30;99.90;;;;;;5007352;28;20026;-67
2021/11/29 08:47:06;;;;;;;12.43;6.53;;;1.30;99.90;;;;;;5008744;28;20026;-68
2021/11/29 08:49:32;;;;;;;18.10;5.13;;;1.30;99.90;;;;;;5002485;28;20040;-68
2021/11/29 08:51:58;;;;;;;13.55;3.72;;;1.30;99.90;;;;;;5008137;28;20014;-68
2021/11/29 08:54:24;;;;;;;7.22;4.72;;;1.30;99.90;;;;;;5005943;28;20065;-68
2021/11/29 08:56:51;;;;;;;7.90;3.58;;;1.40;99.90;;;;;;5011802;28;20038;-68
2021/11/29 08:59:18;;;;;;;9.73;2.85;;;1.40;99.90;;;;;;5010853;28;20030;-67
2021/11/29 09:01:45;;;;;;;5.97;2.97;;;1.40;99.90;;;;;;5001121;28;20054;-67
2021/11/29 09:04:10;;;;;;;10.13;4.15;;;1.40;99.90;;;;;;5003507;28;20079;-67
2021/11/29 09:06:36;;;;;;;4.38;2.47;;;1.40;99.90;;;;;;5005701;28;20034;-67
2021/11/29 09:09:03;;;;;;;9.85;3.95;;;1.50;99.90;;;;;;5015895;28;20042;-67
2021/11/29 09:11:29;;;;;;;22.50;4.35;;;1.50;99.90;;;;;;5008968;28;20100;-67
2021/11/29 09:13:56;;;;;;;5.28;3.15;;;1.50;99.90;;;;;;5009516;28;20079;-67
2021/11/29 09:16:22;;;;;;;12.77;5.07;;;1.50;99.90;;;;;;5010055;28;20034;-67
2021/11/29 09:18:47;;;;;;;12.13;4.05;;;1.50;99.90;;;;;;5005733;28;20026;-67
2021/11/29 09:21:16;;;;;;;4.63;3.05;;;1.50;99.90;;;;;;5005708;28;20048;-67
2021/11/29 09:23:42;;;;;;;9.20;3.85;;;1.50;99.90;;;;;;5008316;28;20056;-67
2021/11/29 09:26:08;;;;;;;7.07;3.67;;;1.40;99.90;;;;;;5010734;28;20048;-67
2021/11/29 09:28:35;;;;;;;6.85;2.97;;;1.50;99.90;;;;;;5009043;28;20038;-67
2021/11/29 09:31:01;;;;;;;9.90;4.40;;;1.50;99.90;;;;;;5007654;28;20108;-67
2021/11/29 09:33:27;;;;;;;9.85;3.65;;;1.50;99.90;;;;;;5011445;28;20026;-67
2021/11/29 09:35:53;;;;;;;10.75;3.33;;;1.60;99.90;;;;;;5015387;28;20581;-67
2021/11/29 09:38:19;;;;;;;10.48;4.07;;;1.60;99.90;;;;;;5006330;28;20067;-67
2021/11/29 09:40:47;;;;;;;9.05;3.53;;;1.60;99.90;;;;;;5008563;28;20026;-67
2021/11/29 09:43:16;;;;;;;6.50;2.50;;;1.60;99.90;;;;;;5000224;28;20035;-67
2021/11/29 09:45:45;;;;;;;9.77;3.65;;;1.60;99.90;;;;;;4998500;28;20057;-67
2021/11/29 09:48:11;;;;;;;8.15;3.85;;;1.50;99.90;;;;;;5007799;28;20061;-67
2021/11/29 09:50:40;;;;;;;6.65;3.10;;;1.50;99.90;;;;;;5012348;28;20116;-67
2021/11/29 09:53:06;;;;;;;11.38;4.63;;;1.50;99.90;;;;;;5002084;28;20018;-67
2021/11/29 09:55:32;;;;;;;13.30;5.47;;;1.50;99.90;;;;;;5006731;28;20040;-67
2021/11/29 09:57:59;;;;;;;15.02;5.57;;;1.60;99.90;;;;;;5004993;28;20022;-67
2021/11/29 10:00:29;;;;;;;9.18;4.00;;;1.60;99.90;;;;;;5001776;28;20026;-67
2021/11/29 10:02:55;;;;;;;7.00;4.50;;;1.60;99.90;;;;;;5004094;28;20037;-67
2021/11/29 10:05:23;;;;;;;9.88;3.97;;;1.60;99.90;;;;;;5014325;28;20352;-67
2021/11/29 10:07:49;;;;;;;6.72;2.88;;;1.60;99.90;;;;;;5008381;28;20037;-67
2021/11/29 10:10:19;;;;;;;10.95;4.35;;;1.70;99.90;;;;;;5012157;28;20026;-67
2021/11/29 10:12:47;;;;;;;11.52;4.20;;;1.70;99.90;;;;;;5010738;28;20061;-67
2021/11/29 10:15:28;;;;;;;12.32;3.78;;;1.70;99.90;;;;;;5012086;28;20076;-67
2021/11/29 10:18:11;;;;;;;9.57;4.03;;;1.70;99.90;;;;;;5010238;28;20030;-67
2021/11/29 10:20:52;;;;;;;13.25;5.38;;;1.80;99.90;;;;;;5022813;28;20036;-68
2021/11/29 10:23:38;;;;;;;4.82;2.47;;;1.80;99.90;;;;;;5015735;28;20482;-68
2021/11/29 10:26:18;;;;;;;7.90;5.00;;;1.80;99.90;;;;;;5026743;28;20038;-68
2021/11/29 10:29:03;;;;;;;8.82;3.92;;;1.90;99.90;;;;;;5003854;28;20034;-68
2021/11/29 10:31:37;;;;;;;8.95;4.22;;;2.00;99.90;;;;;;5024425;28;20022;-68
2021/11/29 10:34:05;;;;;;;13.60;4.60;;;2.00;99.90;;;;;;5009705;28;20026;-67
2021/11/29 10:36:46;;;;;;;10.40;4.25;;;2.00;99.90;;;;;;5010312;28;20030;-67
2021/11/29 10:39:18;;;;;;;7.63;5.13;;;2.00;99.90;;;;;;5021323;28;20540;-67
2021/11/29 10:41:47;;;;;;;9.80;4.18;;;2.00;99.90;;;;;;5011843;28;20434;-67
2021/11/29 10:44:17;;;;;;;14.80;5.60;;;2.00;99.90;;;;;;5012373;28;20044;-67
2021/11/29 10:46:43;;;;;;;;;;;2.10;99.90;;;;;;5002376;28;20445;-67
2021/11/29 10:49:13;;;;;;;9.02;3.90;;;2.10;99.90;;;;;;5015052;28;19945;-68
2021/11/29 10:51:43;;;;;;;10.20;5.57;;;2.10;99.90;;;;;;5003320;28;20046;-67
2021/11/29 10:54:13;;;;;;;8.75;4.47;;;2.20;99.90;;;;;;5010326;28;20026;-67
2021/11/29 10:56:40;;;;;;;12.27;5.47;;;2.20;99.90;;;;;;5006255;28;20014;-67
2021/11/29 10:59:11;;;;;;;9.90;3.85;;;2.20;99.90;;;;;;5014714;28;20042;-67
2021/11/29 11:01:45;;;;;;;17.40;6.80;;;2.20;99.90;;;;;;5012911;28;20422;-67
2021/11/29 11:04:46;;;;;;;13.27;5.45;;;2.20;99.90;;;;;;5013267;28;20038;-67
2021/11/29 11:07:20;;;;;;;19.05;7.45;;;2.20;99.90;;;;;;5006286;28;20038;-67
2021/11/29 11:09:57;;;;;;;12.75;6.43;;;2.10;99.90;;;;;;5013547;28;20098;-68
2021/11/29 11:12:30;;;;;;;9.07;5.55;;;2.20;99.90;;;;;;5011437;28;20081;-68
2021/11/29 11:15:00;;;;;;;13.68;5.90;;;2.30;99.90;;;;;;5014690;28;20030;-67
2021/11/29 11:17:28;;;;;;;7.30;4.05;;;2.30;99.90;;;;;;5011798;28;20072;-68
2021/11/29 11:20:09;;;;;;;9.15;5.47;;;2.30;99.90;;;;;;5009023;28;20030;-67
2021/11/29 11:22:49;;;;;;;9.15;4.72;;;2.30;99.90;;;;;;5010895;28;20096;-67
2021/11/29 11:25:20;;;;;;;12.93;5.37;;;2.40;99.90;;;;;;5017749;28;20026;-68
2021/11/29 11:28:03;;;;;;;17.60;5.90;;;2.50;99.90;;;;;;5007588;28;20702;-67
2021/11/29 11:30:36;;;;;;;8.23;3.53;;;2.50;99.90;;;;;;5011920;28;20033;-68
2021/11/29 11:33:06;;;;;;;9.13;3.42;;;2.50;99.90;;;;;;5010444;28;20524;-68
2021/11/29 11:35:36;;;;;;;10.25;3.80;;;2.60;99.90;;;;;;5002911;28;20028;-68
2021/11/29 11:38:08;;;;;;;6.40;2.63;;;2.60;99.90;;;;;;5006106;28;20052;-68
2021/11/29 11:40:37;;;;;;;15.02;5.15;;;2.60;99.90;;;;;;5009497;28;20030;-68
2021/11/29 11:43:06;;;;;;;10.35;5.22;;;2.70;99.90;;;;;;5003666;28;20045;-68
2021/11/29 11:45:35;;;;;;;9.25;3.53;;;2.70;99.90;;;;;;5007241;28;20036;-68
2021/11/29 11:48:02;;;;;;;10.88;4.35;;;2.80;99.90;;;;;;5012809;28;20111;-68
2021/11/29 11:50:33;;;;;;;8.60;3.30;;;2.80;99.90;;;;;;5009238;28;20053;-68
2021/11/29 11:52:59;;;;;;;10.32;4.93;;;2.80;99.90;;;;;;5010923;28;20026;-68
2021/11/29 11:55:32;;;;;;;11.10;3.47;;;2.80;99.90;;;;;;5012053;28;20425;-68
2021/11/29 11:58:05;;;;;;;8.07;4.22;;;2.70;99.90;;;;;;5015147;28;20049;-68
2021/11/29 12:00:42;;;;;;;16.17;5.53;;;2.70;99.90;;;;;;5003417;28;20141;-68
2021/11/29 12:03:30;;;;;;;11.85;4.20;;;2.80;99.90;;;;;;5013123;28;20106;-68
2021/11/29 12:05:59;;;;;;;6.15;2.95;;;2.90;99.90;;;;;;5024026;28;20120;-68
2021/11/29 12:08:35;;;;;;;7.30;3.50;;;3.00;99.90;;;;;;5006271;28;20021;-68
2021/11/29 12:11:05;;;;;;;14.07;5.13;;;3.00;99.90;;;;;;5016764;28;20032;-68
2021/11/29 12:13:42;;;;;;;9.60;3.65;;;3.00;99.90;;;;;;5007801;28;20461;-68
2021/11/29 12:16:09;;;;;;;6.25;2.67;;;2.90;99.90;;;;;;5005000;28;20470;-69
2021/11/29 12:18:41;;;;;;;7.60;3.45;;;2.90;99.90;;;;;;5010089;28;20054;-68
2021/11/29 12:21:20;;;;;;;4.78;2.78;;;3.00;99.90;;;;;;5011427;28;20053;-68
2021/11/29 12:23:52;;;;;;;6.53;3.42;;;3.00;99.90;;;;;;5015802;28;20038;-67
2021/11/29 12:26:18;;;;;;;6.55;2.67;;;3.00;99.90;;;;;;5009600;28;20018;-68
2021/11/29 12:28:46;;;;;;;8.98;3.30;;;2.90;99.90;;;;;;5012601;28;20037;-68
2021/11/29 12:31:36;;;;;;;6.10;2.80;;;2.90;99.90;;;;;;5011513;28;20470;-68
2021/11/29 12:34:06;;;;;;;4.33;2.80;;;2.90;99.90;;;;;;5004386;28;20033;-68
2021/11/29 12:36:58;;;;;;;6.65;2.85;;;2.90;99.90;;;;;;5003518;28;20300;-68
2021/11/29 12:39:41;;;;;;;5.50;3.10;;;3.00;99.90;;;;;;4979385;28;20050;-68
2021/11/29 12:42:27;;;;;;;17.30;4.93;;;3.00;99.90;;;;;;4994356;28;20320;-68
2021/11/29 12:44:59;;;;;;;9.38;2.80;;;2.80;99.90;;;;;;5003029;28;20062;-68
2021/11/29 12:47:55;;;;;;;6.20;2.60;;;2.90;99.90;;;;;;5003699;28;20022;-68
2021/11/29 12:50:38;;;;;;;2.67;1.80;;;2.90;99.90;;;;;;5021310;28;20057;-68
2021/11/29 12:53:38;;;;;;;8.15;2.97;;;2.80;99.90;;;;;;5006826;28;20025;-68
2021/11/29 12:56:04;;;;;;;5.47;2.08;;;2.90;99.90;;;;;;5007384;28;20493;-68
2021/11/29 12:58:36;;;;;;;4.78;2.45;;;2.90;99.90;;;;;;5005774;28;20025;-68
2021/11/29 13:01:04;;;;;;;6.38;2.13;;;3.00;99.90;;;;;;5000397;28;20125;-68